Terminal Aerodrome Forecast
Issued by NWS

Home | Current Version | Previous Version | Text Only | Print | Product List | Glossary Off
Versions: 1 2 3 4 5 6 7 8 9 10 11 12

801
FTUS43 KFGF 260522
TAFBJI
TAF
KBJI 260522Z 2606/2706 08014KT P6SM OVC009
     FM260800 08013KT P6SM VCSH OVC015
     FM261200 07010KT P6SM OVC035
     FM261500 07011KT P6SM SCT250
     FM270500 09007KT P6SM SCT250=

USA.gov is the U.S. government's official web portal to all federal, state and local government web resources and services.